Time;durP1;ratioP1;P1;durP2;ratioP2;P2;SDS_P1;SDS_P2;PMS_P1;PMS_P2;Temp;Humidity;BMP_temperature;BMP_pressure;BME280_temperature;BME280_humidity;BME280_pressure;Samples;Min_cycle;Max_cycle;Signal;HPM_P1;HPM_P2
2021/01/23 00:00:37;;;;;;;0.67;0.60;;;1.90;99.90;;;;;;6146742;23;20431;-85
2021/01/23 00:03:02;;;;;;;0.60;0.60;;;1.90;99.90;;;;;;6146075;23;20266;-84
2021/01/23 00:05:28;;;;;;;0.57;0.57;;;1.90;99.90;;;;;;6146374;23;20164;-84
2021/01/23 00:08:00;;;;;;;0.50;0.50;;;1.90;99.90;;;;;;6146975;23;20166;-84
2021/01/23 00:10:26;;;;;;;0.30;0.30;;;1.80;99.90;;;;;;6145189;23;20231;-84
2021/01/23 00:12:52;;;;;;;0.40;0.40;;;1.90;99.90;;;;;;6147250;23;20478;-84
2021/01/23 00:15:45;;;;;;;0.63;0.30;;;1.80;99.90;;;;;;6145978;23;20242;-84
2021/01/23 00:18:45;;;;;;;0.50;0.50;;;1.80;99.90;;;;;;6142488;23;20177;-84
2021/01/23 00:21:11;;;;;;;1.33;0.40;;;1.80;99.90;;;;;;6146143;23;20400;-84
2021/01/23 00:23:36;;;;;;;0.40;0.40;;;1.80;99.90;;;;;;6145919;23;20805;-86
2021/01/23 00:26:45;;;;;;;0.47;0.47;;;1.80;99.90;;;;;;6145301;23;20187;-85
2021/01/23 00:31:57;;;;;;;0.40;0.40;;;1.80;99.90;;;;;;6167722;23;20450;-85
2021/01/23 00:34:23;;;;;;;0.40;0.40;;;1.80;99.90;;;;;;6142577;23;20404;-85
2021/01/23 00:36:49;;;;;;;0.30;0.30;;;1.80;99.90;;;;;;6145656;23;20383;-85
2021/01/23 00:39:15;;;;;;;0.60;0.60;;;1.80;99.90;;;;;;6146735;23;20820;-84
2021/01/23 00:41:40;;;;;;;1.33;0.40;;;1.80;99.90;;;;;;6147894;23;20470;-85
2021/01/23 00:44:06;;;;;;;0.43;0.43;;;1.80;99.90;;;;;;6145889;23;20502;-85
2021/01/23 00:46:34;;;;;;;0.70;0.70;;;1.70;99.90;;;;;;6144558;23;20243;-84
2021/01/23 00:49:00;;;;;;;0.50;0.50;;;1.80;99.90;;;;;;6147222;23;20458;-84
2021/01/23 00:51:25;;;;;;;0.60;0.57;;;1.80;99.90;;;;;;6145741;23;20257;-84
2021/01/23 00:53:51;;;;;;;0.93;0.60;;;1.80;99.90;;;;;;6146701;23;20196;-85
2021/01/23 00:56:17;;;;;;;0.73;0.73;;;1.70;99.90;;;;;;6146583;23;20202;-84
2021/01/23 00:58:42;;;;;;;1.00;1.00;;;1.70;99.90;;;;;;6148368;23;20610;-85
2021/01/23 01:01:08;;;;;;;1.07;1.00;;;1.70;99.90;;;;;;6143439;23;20657;-86
2021/01/23 01:03:34;;;;;;;1.03;1.00;;;1.70;99.90;;;;;;6168867;23;20611;-85
2021/01/23 01:06:00;;;;;;;2.20;1.20;;;1.70;99.90;;;;;;6145325;23;20173;-84
2021/01/23 01:08:26;;;;;;;1.57;1.47;;;1.80;99.90;;;;;;6146508;23;20165;-85
2021/01/23 01:10:53;;;;;;;1.63;1.30;;;1.70;99.90;;;;;;6145388;23;20885;-85
2021/01/23 01:13:22;;;;;;;1.20;1.10;;;1.80;99.90;;;;;;6147511;23;20196;-85
2021/01/23 01:15:48;;;;;;;1.57;1.47;;;1.80;99.90;;;;;;6146700;23;20485;-84
2021/01/23 01:18:14;;;;;;;1.43;1.33;;;1.80;99.90;;;;;;6147654;23;20396;-84
2021/01/23 01:20:39;;;;;;;1.30;1.23;;;1.90;99.90;;;;;;6146921;23;20392;-83
2021/01/23 01:23:05;;;;;;;1.30;1.20;;;1.80;99.90;;;;;;6144930;23;20163;-84
2021/01/23 01:25:31;;;;;;;1.40;1.30;;;1.80;99.90;;;;;;6146593;23;20161;-84
2021/01/23 01:27:56;;;;;;;1.83;1.37;;;1.80;99.90;;;;;;6143940;23;20161;-83
2021/01/23 01:30:22;;;;;;;1.17;1.07;;;1.80;99.90;;;;;;6144617;23;20195;-85
2021/01/23 01:33:02;;;;;;;2.33;1.50;;;1.80;99.90;;;;;;6146005;23;20282;-87
2021/01/23 01:35:27;;;;;;;2.00;1.60;;;1.80;99.90;;;;;;6144872;23;20399;-87
2021/01/23 01:37:53;;;;;;;2.00;1.67;;;1.70;99.90;;;;;;6171990;23;20719;-86
2021/01/23 01:40:19;;;;;;;2.17;1.97;;;1.80;99.90;;;;;;6144672;23;20817;-87
2021/01/23 01:42:44;;;;;;;2.20;2.00;;;1.80;99.90;;;;;;6145926;23;20165;-86
2021/01/23 01:45:11;;;;;;;1.97;1.87;;;1.80;99.90;;;;;;6141311;23;20196;-86
2021/01/23 01:47:38;;;;;;;2.50;2.30;;;1.80;99.90;;;;;;6146062;23;20318;-86
2021/01/23 01:50:04;;;;;;;3.37;2.00;;;1.80;99.90;;;;;;6145391;23;20415;-86
2021/01/23 01:52:30;;;;;;;2.60;2.40;;;1.80;99.90;;;;;;6144388;23;20466;-86
2021/01/23 01:54:56;;;;;;;3.20;2.57;;;1.80;99.90;;;;;;6147985;23;20400;-86
2021/01/23 01:57:22;;;;;;;2.50;2.27;;;1.80;99.90;;;;;;6148738;23;20606;-86
2021/01/23 01:59:48;;;;;;;4.60;2.90;;;1.80;99.90;;;;;;6148198;23;20161;-87
2021/01/23 02:02:49;;;;;;;3.37;3.07;;;1.80;99.90;;;;;;6146022;23;20499;-86
2021/01/23 02:05:23;;;;;;;3.57;3.10;;;1.80;99.90;;;;;;6104072;23;20393;-86
2021/01/23 02:07:55;;;;;;;3.33;3.03;;;1.90;99.90;;;;;;6149439;23;20431;-87
2021/01/23 02:10:23;;;;;;;3.70;3.40;;;1.90;99.90;;;;;;6147092;23;20721;-86
2021/01/23 02:12:58;;;;;;;3.27;3.00;;;1.90;99.90;;;;;;6146556;23;20770;-86
2021/01/23 02:15:27;;;;;;;3.30;3.00;;;1.90;99.90;;;;;;6145804;23;20442;-87
2021/01/23 02:18:07;;;;;;;3.17;2.57;;;1.90;99.90;;;;;;6147021;23;20443;-86
2021/01/23 02:20:54;;;;;;;3.87;2.03;;;2.00;99.90;;;;;;6148343;23;20570;-86
2021/01/23 02:23:34;;;;;;;1.70;1.60;;;2.00;99.90;;;;;;6147703;23;20404;-86
2021/01/23 02:26:04;;;;;;;1.77;1.67;;;2.00;99.90;;;;;;6143295;23;20451;-86
2021/01/23 02:28:50;;;;;;;1.90;1.80;;;1.90;99.90;;;;;;6146144;23;20775;-86
2021/01/23 02:31:22;;;;;;;1.93;1.83;;;2.00;99.90;;;;;;6147830;23;20392;-86
2021/01/23 02:33:52;;;;;;;2.43;1.83;;;2.10;99.90;;;;;;6146288;23;20442;-86
2021/01/23 02:36:20;;;;;;;1.57;1.47;;;2.00;99.90;;;;;;6146424;23;20475;-86
2021/01/23 02:38:47;;;;;;;1.40;1.30;;;2.10;99.90;;;;;;6147356;23;20403;-87
2021/01/23 02:41:13;;;;;;;1.63;1.53;;;2.10;99.90;;;;;;6149000;23;20384;-87
2021/01/23 02:43:44;;;;;;;1.43;1.33;;;2.10;99.90;;;;;;6147371;23;20407;-86
2021/01/23 02:46:11;;;;;;;2.10;1.57;;;2.10;99.90;;;;;;6144520;23;20462;-86
2021/01/23 02:48:38;;;;;;;1.17;1.10;;;2.10;99.90;;;;;;6147621;23;20514;-87
2021/01/23 02:51:18;;;;;;;1.40;1.30;;;2.10;99.90;;;;;;6147272;23;20395;-87
2021/01/23 02:53:48;;;;;;;1.60;1.50;;;2.10;99.90;;;;;;6147810;23;20435;-87
2021/01/23 02:56:24;;;;;;;1.50;1.40;;;2.10;99.90;;;;;;6147445;23;20845;-87
2021/01/23 02:58:52;;;;;;;2.37;2.17;;;2.10;99.90;;;;;;6146701;23;20403;-86
2021/01/23 03:01:23;;;;;;;1.80;1.70;;;2.10;99.90;;;;;;6148849;23;20489;-87
2021/01/23 03:03:54;;;;;;;2.10;1.90;;;2.10;99.90;;;;;;6147801;23;20419;-87
2021/01/23 03:06:21;;;;;;;1.70;1.60;;;2.10;99.90;;;;;;6145158;23;20725;-87
2021/01/23 03:08:46;;;;;;;2.23;1.80;;;2.10;99.90;;;;;;6142712;23;20438;-86
2021/01/23 03:11:12;;;;;;;1.67;1.57;;;2.10;99.90;;;;;;6147003;23;20889;-86
2021/01/23 03:13:38;;;;;;;1.67;1.57;;;2.00;99.90;;;;;;6170328;23;20228;-87
2021/01/23 03:16:04;;;;;;;1.83;1.73;;;2.10;99.90;;;;;;6147681;23;20175;-87
2021/01/23 03:18:30;;;;;;;1.70;1.40;;;2.00;99.90;;;;;;6148034;23;20499;-86
2021/01/23 03:20:55;;;;;;;1.60;1.50;;;2.00;99.90;;;;;;6148725;23;20388;-87
2021/01/23 03:23:21;;;;;;;1.60;1.50;;;2.10;99.90;;;;;;6148713;23;20168;-87
2021/01/23 03:25:46;;;;;;;1.60;1.50;;;2.10;99.90;;;;;;6147457;23;20607;-87
2021/01/23 03:28:12;;;;;;;1.93;1.80;;;2.10;99.90;;;;;;6149150;23;20907;-87
2021/01/23 03:30:38;;;;;;;2.27;2.17;;;2.10;99.90;;;;;;6147376;23;20226;-87
2021/01/23 03:33:03;;;;;;;1.90;1.80;;;2.10;99.90;;;;;;6145779;23;20550;-87
2021/01/23 03:35:32;;;;;;;2.00;1.77;;;2.00;99.90;;;;;;6145839;23;20168;-88
2021/01/23 03:37:57;;;;;;;2.27;2.07;;;2.10;99.90;;;;;;6147527;23;20414;-88
2021/01/23 03:40:23;;;;;;;2.33;1.93;;;2.10;99.90;;;;;;6146324;23;20735;-87
2021/01/23 03:42:48;;;;;;;2.00;1.90;;;2.00;99.90;;;;;;6147559;23;20192;-87
2021/01/23 03:45:14;;;;;;;1.77;1.67;;;2.00;99.90;;;;;;6146836;23;20243;-88
2021/01/23 03:47:40;;;;;;;1.73;1.63;;;1.90;99.90;;;;;;6146405;23;20638;-88
2021/01/23 03:50:08;;;;;;;2.03;1.93;;;1.90;99.90;;;;;;6146578;23;20148;-87
2021/01/23 03:52:34;;;;;;;2.40;2.23;;;1.90;99.90;;;;;;6143062;23;20439;-87
2021/01/23 03:55:00;;;;;;;2.30;2.10;;;1.90;99.90;;;;;;6147221;23;20392;-87
2021/01/23 03:57:26;;;;;;;2.50;2.13;;;1.80;99.90;;;;;;6145820;23;20989;-87
2021/01/23 03:59:51;;;;;;;2.20;2.00;;;1.80;99.90;;;;;;6147088;23;20273;-86
2021/01/23 04:02:17;;;;;;;2.40;2.20;;;1.80;99.90;;;;;;6143862;23;20177;-87
2021/01/23 04:04:42;;;;;;;2.40;2.20;;;1.80;99.90;;;;;;6145672;23;20195;-87
2021/01/23 04:07:08;;;;;;;3.80;2.10;;;1.80;99.90;;;;;;6146477;23;20210;-88
2021/01/23 04:09:34;;;;;;;2.80;2.60;;;1.80;99.90;;;;;;6147400;23;20168;-88
2021/01/23 04:12:00;;;;;;;1.90;1.70;;;1.80;99.90;;;;;;6145606;23;20880;-88
2021/01/23 04:14:25;;;;;;;2.60;2.40;;;1.80;99.90;;;;;;6145900;23;20399;-88
2021/01/23 04:16:51;;;;;;;2.20;1.87;;;1.90;99.90;;;;;;6146759;23;20156;-88
2021/01/23 04:19:17;;;;;;;1.80;1.70;;;1.80;99.90;;;;;;6145789;23;20171;-87
2021/01/23 04:21:43;;;;;;;1.90;1.80;;;1.80;99.90;;;;;;6147375;23;20171;-87
2021/01/23 04:24:10;;;;;;;1.70;1.53;;;1.80;99.90;;;;;;6145450;23;20376;-87
2021/01/23 04:26:36;;;;;;;1.80;1.50;;;1.80;99.90;;;;;;6147306;23;20795;-87
2021/01/23 04:29:03;;;;;;;3.90;1.90;;;1.70;99.90;;;;;;6146455;23;20400;-87
2021/01/23 04:31:29;;;;;;;1.80;1.70;;;1.70;99.90;;;;;;6146421;23;20403;-87
2021/01/23 04:33:55;;;;;;;1.50;1.33;;;1.70;99.90;;;;;;6144256;23;20439;-87
2021/01/23 04:36:20;;;;;;;3.00;1.70;;;1.80;99.90;;;;;;6143832;23;20167;-86
2021/01/23 04:38:46;;;;;;;1.97;1.77;;;1.70;99.90;;;;;;6145526;23;20219;-87
2021/01/23 04:41:12;;;;;;;1.80;1.70;;;1.70;99.90;;;;;;6145135;23;20165;-87
2021/01/23 04:43:38;;;;;;;1.47;1.37;;;1.70;99.90;;;;;;6147020;23;20936;-88
2021/01/23 04:46:03;;;;;;;1.43;1.33;;;1.70;99.90;;;;;;6144538;23;20222;-87
2021/01/23 04:48:29;;;;;;;1.47;1.37;;;1.80;99.90;;;;;;6146071;23;20175;-88
2021/01/23 04:50:55;;;;;;;1.60;1.33;;;1.80;99.90;;;;;;6145816;23;20392;-88
2021/01/23 04:53:21;;;;;;;1.97;1.70;;;1.80;99.90;;;;;;6144924;23;20439;-88
2021/01/23 04:55:47;;;;;;;2.10;1.33;;;1.80;99.90;;;;;;6146006;23;20411;-88
2021/01/23 04:58:12;;;;;;;1.77;1.60;;;1.80;99.90;;;;;;6145557;23;20499;-88
2021/01/23 05:00:38;;;;;;;2.10;1.37;;;1.80;99.90;;;;;;6145635;23;20184;-88
2021/01/23 05:03:06;;;;;;;1.50;1.40;;;1.80;99.90;;;;;;6144854;23;20184;-88
2021/01/23 05:05:33;;;;;;;1.43;1.27;;;1.80;99.90;;;;;;6145342;23;20510;-88
2021/01/23 05:08:12;;;;;;;1.30;1.20;;;1.80;99.90;;;;;;6144073;23;20404;-88
2021/01/23 05:10:38;;;;;;;1.30;1.23;;;1.80;99.90;;;;;;6145453;23;20936;-88
2021/01/23 05:13:15;;;;;;;1.03;1.03;;;1.90;99.90;;;;;;6144064;23;20526;-87
2021/01/23 05:15:45;;;;;;;1.90;1.80;;;1.80;99.90;;;;;;6145081;23;20558;-87
2021/01/23 05:18:15;;;;;;;2.00;1.90;;;1.80;99.90;;;;;;6140960;23;20395;-87
2021/01/23 05:20:52;;;;;;;1.80;1.70;;;1.90;99.90;;;;;;6144421;23;20673;-87
2021/01/23 05:23:28;;;;;;;2.63;2.43;;;1.80;99.90;;;;;;6145030;23;20406;-87
2021/01/23 05:25:59;;;;;;;2.57;2.37;;;1.90;99.90;;;;;;6145395;23;20399;-88
2021/01/23 05:28:36;;;;;;;2.83;2.50;;;1.80;99.90;;;;;;6145138;23;20431;-87
2021/01/23 05:31:04;;;;;;;2.70;2.50;;;1.80;99.90;;;;;;6147365;23;20375;-87
2021/01/23 05:33:32;;;;;;;2.03;1.93;;;1.80;99.90;;;;;;6146964;23;20493;-87
2021/01/23 05:36:06;;;;;;;2.27;2.07;;;1.80;99.90;;;;;;6147671;23;20388;-87
2021/01/23 05:38:40;;;;;;;2.40;2.20;;;1.70;99.90;;;;;;6149329;23;20434;-88
2021/01/23 05:41:08;;;;;;;1.70;1.60;;;1.70;99.90;;;;;;6148562;23;20488;-88
2021/01/23 05:43:42;;;;;;;2.00;1.80;;;1.80;99.90;;;;;;6147611;23;20474;-88
2021/01/23 05:46:07;;;;;;;1.43;1.33;;;1.80;99.90;;;;;;6149767;23;20902;-87
2021/01/23 05:48:34;;;;;;;1.43;1.33;;;1.80;99.90;;;;;;6148063;23;20399;-87
2021/01/23 05:51:00;;;;;;;2.10;2.00;;;1.80;99.90;;;;;;6147840;23;20164;-88
2021/01/23 05:53:26;;;;;;;1.20;1.20;;;1.80;99.90;;;;;;6148000;23;20493;-87
2021/01/23 05:55:52;;;;;;;1.57;1.47;;;1.80;99.90;;;;;;6148980;23;20400;-88
2021/01/23 05:58:17;;;;;;;2.00;1.30;;;1.80;99.90;;;;;;6147486;23;20537;-88
2021/01/23 06:00:43;;;;;;;1.60;1.50;;;1.70;99.90;;;;;;6148187;23;20218;-88
2021/01/23 06:03:11;;;;;;;1.40;1.30;;;1.70;99.90;;;;;;6146983;23;20266;-87
2021/01/23 06:05:37;;;;;;;1.83;1.67;;;1.70;99.90;;;;;;6148851;23;20415;-87
2021/01/23 06:08:03;;;;;;;1.40;1.30;;;1.70;99.90;;;;;;6146715;23;20917;-87
2021/01/23 06:10:39;;;;;;;1.60;1.50;;;1.70;99.90;;;;;;6149146;23;20390;-88
2021/01/23 06:13:25;;;;;;;1.97;1.83;;;1.70;99.90;;;;;;6147611;23;20829;-88
2021/01/23 06:15:51;;;;;;;1.70;1.60;;;1.70;99.90;;;;;;6147170;23;20557;-88
2021/01/23 06:18:23;;;;;;;1.70;1.60;;;1.70;99.90;;;;;;6148272;23;20392;-87
2021/01/23 06:20:50;;;;;;;1.50;1.40;;;1.70;99.90;;;;;;6148654;23;20163;-88
2021/01/23 06:23:19;;;;;;;1.80;1.27;;;1.70;99.90;;;;;;6148847;23;20458;-88
2021/01/23 06:25:51;;;;;;;1.73;1.63;;;1.70;99.90;;;;;;6148183;23;20471;-88
2021/01/23 06:28:17;;;;;;;1.87;1.63;;;1.70;99.90;;;;;;6148265;23;20910;-88
2021/01/23 06:30:43;;;;;;;1.90;1.57;;;1.70;99.90;;;;;;6149110;23;20446;-87
2021/01/23 06:33:21;;;;;;;1.57;1.47;;;1.70;99.90;;;;;;6148099;23;20802;-88
2021/01/23 06:36:06;;;;;;;1.40;1.30;;;1.70;99.90;;;;;;6149267;23;20407;-87
2021/01/23 06:38:32;;;;;;;1.43;1.33;;;1.70;99.90;;;;;;6148842;23;20426;-88
2021/01/23 06:41:27;;;;;;;0.87;0.83;;;1.70;99.90;;;;;;6147784;23;20454;-87
2021/01/23 06:44:12;;;;;;;1.27;1.17;;;1.70;99.90;;;;;;6146206;23;20462;-87
2021/01/23 06:46:40;;;;;;;1.50;1.40;;;1.70;99.90;;;;;;6148018;23;20964;-86
2021/01/23 06:49:10;;;;;;;1.70;1.60;;;1.70;99.90;;;;;;6173382;23;21017;-86
2021/01/23 06:51:38;;;;;;;1.60;1.50;;;1.60;99.90;;;;;;6147641;23;20483;-87
2021/01/23 06:54:13;;;;;;;1.50;1.40;;;1.70;99.90;;;;;;6147920;23;20517;-87
2021/01/23 06:56:47;;;;;;;2.00;1.90;;;1.70;99.90;;;;;;6147716;23;20915;-86
2021/01/23 06:59:30;;;;;;;1.93;1.83;;;1.70;99.90;;;;;;6147703;23;20422;-87
2021/01/23 07:01:58;;;;;;;1.80;1.70;;;1.60;99.90;;;;;;6147047;23;20804;-87
2021/01/23 07:04:29;;;;;;;3.07;1.77;;;1.60;99.90;;;;;;6147214;23;20411;-86
2021/01/23 07:06:56;;;;;;;1.63;1.53;;;1.70;99.90;;;;;;6148041;23;20760;-87
2021/01/23 07:09:44;;;;;;;2.20;2.00;;;1.60;99.90;;;;;;6147287;23;20407;-89
2021/01/23 07:12:11;;;;;;;1.77;1.67;;;1.60;99.90;;;;;;6147277;23;20782;-87
2021/01/23 07:14:36;;;;;;;2.00;1.90;;;1.70;99.90;;;;;;6147571;23;20768;-87
2021/01/23 07:17:02;;;;;;;1.80;1.70;;;1.70;99.90;;;;;;6147190;23;20518;-87
2021/01/23 07:19:28;;;;;;;2.13;1.93;;;1.70;99.90;;;;;;6147969;23;20167;-86
2021/01/23 07:21:55;;;;;;;2.73;2.50;;;1.70;99.90;;;;;;6149364;23;20211;-87
2021/01/23 07:24:21;;;;;;;2.20;2.00;;;1.70;99.90;;;;;;6145189;23;20472;-88
2021/01/23 07:26:47;;;;;;;4.17;3.00;;;1.70;99.90;;;;;;6147832;23;20736;-87
2021/01/23 07:29:13;;;;;;;2.33;2.13;;;1.80;99.90;;;;;;6148166;23;20423;-88
2021/01/23 07:31:38;;;;;;;2.63;2.43;;;1.70;99.90;;;;;;6147597;23;20469;-87
2021/01/23 07:34:12;;;;;;;3.83;2.07;;;1.70;99.90;;;;;;6145678;23;20184;-87
2021/01/23 07:36:41;;;;;;;3.13;2.40;;;1.80;99.90;;;;;;6147420;23;20259;-87
2021/01/23 07:39:12;;;;;;;3.63;2.70;;;1.80;99.90;;;;;;6148041;23;20403;-87
2021/01/23 07:41:53;;;;;;;2.70;2.40;;;1.70;99.90;;;;;;6147750;23;20399;-86
2021/01/23 07:44:20;;;;;;;2.93;2.63;;;1.80;99.90;;;;;;6147738;23;20726;-86
2021/01/23 07:46:47;;;;;;;2.93;2.63;;;1.80;99.90;;;;;;6146582;23;20399;-84
2021/01/23 07:49:21;;;;;;;2.93;2.63;;;1.80;99.90;;;;;;6147417;23;20466;-85
2021/01/23 07:51:47;;;;;;;3.23;2.93;;;1.80;99.90;;;;;;6147305;23;20399;-87
2021/01/23 07:54:13;;;;;;;2.60;2.40;;;1.80;99.90;;;;;;6143775;23;20472;-88
2021/01/23 07:56:56;;;;;;;3.50;2.77;;;1.80;99.90;;;;;;6146204;23;20815;-87
2021/01/23 07:59:43;;;;;;;2.53;2.33;;;1.90;99.90;;;;;;6171419;23;20408;-87
2021/01/23 08:02:32;;;;;;;4.60;3.30;;;2.00;99.90;;;;;;6147287;23;20419;-87
2021/01/23 08:05:04;;;;;;;2.73;2.53;;;2.00;99.90;;;;;;6145374;23;20400;-89
2021/01/23 08:07:31;;;;;;;3.63;2.10;;;2.10;99.90;;;;;;6147252;23;20396;-83
2021/01/23 08:10:04;;;;;;;2.27;2.10;;;2.10;99.90;;;;;;6136329;23;20391;-85
2021/01/23 08:12:29;;;;;;;2.73;2.53;;;2.10;99.90;;;;;;6145088;23;20450;-83
2021/01/23 08:14:56;;;;;;;2.60;2.40;;;2.10;99.90;;;;;;6149116;23;20399;-83
2021/01/23 08:17:43;;;;;;;2.50;2.30;;;2.10;99.90;;;;;;6171883;23;20498;-84
2021/01/23 08:20:11;;;;;;;2.10;2.00;;;2.10;99.90;;;;;;6145758;23;20546;-84
2021/01/23 08:23:00;;;;;;;2.80;2.50;;;2.10;99.90;;;;;;6171745;23;20466;-85
2021/01/23 08:25:30;;;;;;;3.07;2.80;;;2.20;99.90;;;;;;6139733;23;20398;-85
2021/01/23 08:27:57;;;;;;;3.03;2.83;;;2.20;99.90;;;;;;6138512;23;20411;-84
2021/01/23 08:30:24;;;;;;;2.63;2.43;;;2.30;99.90;;;;;;6140214;23;20426;-86
2021/01/23 08:32:50;;;;;;;3.23;2.83;;;2.30;99.90;;;;;;6138367;23;20443;-86
2021/01/23 08:35:20;;;;;;;3.70;3.40;;;2.40;99.90;;;;;;6139593;23;20707;-86
2021/01/23 08:37:46;;;;;;;2.97;2.77;;;2.40;99.90;;;;;;6138651;23;20550;-86
2021/01/23 08:40:16;;;;;;;3.00;2.50;;;2.50;99.90;;;;;;6140036;23;20395;-86
2021/01/23 08:42:42;;;;;;;6.47;3.20;;;2.60;99.90;;;;;;6139769;23;20418;-86
2021/01/23 08:45:08;;;;;;;3.60;2.70;;;2.70;99.90;;;;;;6138712;23;20392;-86
2021/01/23 08:47:34;;;;;;;2.27;2.13;;;2.60;99.90;;;;;;6139711;23;20561;-86
2021/01/23 08:49:59;;;;;;;3.20;2.70;;;2.70;99.90;;;;;;6139691;23;20394;-87
2021/01/23 08:52:25;;;;;;;3.13;2.67;;;2.80;99.90;;;;;;6134456;23;20199;-85
2021/01/23 08:54:52;;;;;;;3.57;2.53;;;2.80;99.90;;;;;;6136310;23;20168;-85
2021/01/23 08:57:19;;;;;;;3.17;2.90;;;2.90;99.90;;;;;;6134349;23;21006;-85
2021/01/23 08:59:46;;;;;;;3.07;2.77;;;2.90;99.90;;;;;;6132278;23;20392;-85
2021/01/23 09:02:14;;;;;;;2.03;1.93;;;2.90;99.90;;;;;;6134091;23;20180;-86
2021/01/23 09:04:40;;;;;;;5.97;2.70;;;2.90;99.90;;;;;;6140011;23;20400;-84
2021/01/23 09:07:07;;;;;;;2.70;2.13;;;3.00;99.90;;;;;;6139416;23;20442;-85
2021/01/23 09:09:33;;;;;;;2.83;2.63;;;3.00;99.90;;;;;;6139585;23;20888;-85
2021/01/23 09:11:58;;;;;;;4.13;2.70;;;3.00;99.90;;;;;;6140016;23;20387;-85
2021/01/23 09:14:24;;;;;;;3.03;2.83;;;3.00;99.90;;;;;;6140180;23;20194;-85
2021/01/23 09:16:50;;;;;;;5.43;3.07;;;3.10;99.90;;;;;;6138167;23;20167;-85
2021/01/23 09:19:15;;;;;;;2.87;2.50;;;3.20;99.90;;;;;;6140367;23;20173;-87
2021/01/23 09:21:41;;;;;;;3.00;2.43;;;3.30;99.90;;;;;;6139955;23;20164;-86
2021/01/23 09:24:08;;;;;;;2.97;2.67;;;3.40;99.90;;;;;;6135073;23;20263;-87
2021/01/23 09:26:34;;;;;;;4.03;2.87;;;3.50;99.90;;;;;;6135132;23;20222;-86
2021/01/23 09:29:00;;;;;;;2.73;2.53;;;3.70;99.90;;;;;;6137477;23;20704;-86
2021/01/23 09:31:26;;;;;;;2.40;2.20;;;4.10;99.90;;;;;;6140054;23;20588;-85
2021/01/23 09:33:51;;;;;;;2.43;2.23;;;4.20;99.90;;;;;;6135793;23;20454;-86
2021/01/23 09:36:17;;;;;;;2.83;2.63;;;4.50;99.90;;;;;;6137620;23;20593;-86
2021/01/23 09:38:43;;;;;;;2.60;2.40;;;4.50;99.90;;;;;;6140227;23;20177;-85
2021/01/23 09:41:10;;;;;;;3.77;3.47;;;4.50;99.90;;;;;;6139705;23;20546;-86
2021/01/23 09:43:36;;;;;;;3.40;3.00;;;4.80;99.90;;;;;;6139148;23;20260;-87
2021/01/23 09:46:02;;;;;;;4.50;2.70;;;4.90;99.90;;;;;;6140049;23;20511;-85
2021/01/23 09:48:27;;;;;;;2.70;2.50;;;5.10;99.90;;;;;;6139301;23;20734;-86
2021/01/23 09:50:53;;;;;;;2.40;2.20;;;5.50;99.90;;;;;;6140211;23;20687;-84
2021/01/23 09:53:19;;;;;;;2.50;2.30;;;5.40;99.90;;;;;;6139491;23;20228;-86
2021/01/23 09:55:45;;;;;;;3.37;3.07;;;5.00;99.90;;;;;;6140423;23;20489;-84
2021/01/23 09:58:10;;;;;;;4.43;2.77;;;5.00;99.90;;;;;;6138636;23;20160;-85
2021/01/23 10:00:36;;;;;;;2.87;2.67;;;4.90;99.90;;;;;;6139422;23;20168;-86
2021/01/23 10:03:03;;;;;;;2.80;2.60;;;4.90;99.90;;;;;;6137142;23;20180;-85
2021/01/23 10:05:28;;;;;;;3.10;2.80;;;4.80;99.90;;;;;;6138670;23;20168;-85
2021/01/23 10:07:54;;;;;;;4.03;2.97;;;4.90;99.90;;;;;;6140497;23;20411;-85
2021/01/23 10:10:20;;;;;;;3.23;2.83;;;5.20;99.90;;;;;;6138324;23;20531;-87
2021/01/23 10:12:46;;;;;;;3.40;3.10;;;5.20;99.90;;;;;;6138604;23;20649;-85
2021/01/23 10:15:11;;;;;;;3.67;3.37;;;5.10;99.90;;;;;;6139242;23;20191;-87
2021/01/23 10:17:37;;;;;;;3.40;3.17;;;5.30;99.90;;;;;;6135002;23;20525;-85
2021/01/23 10:20:04;;;;;;;4.77;3.83;;;5.30;99.90;;;;;;6136521;23;20259;-87
2021/01/23 10:22:30;;;;;;;3.90;3.50;;;5.40;99.90;;;;;;6139354;23;20164;-85
2021/01/23 10:24:56;;;;;;;3.97;3.10;;;5.80;99.90;;;;;;6140715;23;20481;-83
2021/01/23 10:27:24;;;;;;;4.50;3.37;;;6.00;99.90;;;;;;6139135;23;20640;-86
2021/01/23 10:29:51;;;;;;;3.23;2.90;;;6.30;99.90;;;;;;6139795;23;20243;-85
2021/01/23 10:32:16;;;;;;;2.80;2.60;;;6.80;99.90;;;;;;6137610;23;20437;-85
2021/01/23 10:34:42;;;;;;;3.20;3.00;;;6.90;99.90;;;;;;6139137;23;20466;-86
2021/01/23 10:37:07;;;;;;;3.43;3.13;;;7.20;99.90;;;;;;6138063;23;20477;-87
2021/01/23 10:39:33;;;;;;;4.00;3.70;;;7.40;99.90;;;;;;6139501;23;20260;-86
2021/01/23 10:41:59;;;;;;;6.43;3.57;;;7.30;99.90;;;;;;6139954;23;20541;-87
2021/01/23 10:44:25;;;;;;;4.40;3.30;;;7.00;99.90;;;;;;6139697;23;20164;-85
2021/01/23 10:46:51;;;;;;;2.60;2.40;;;7.00;99.90;;;;;;6137787;23;20186;-85
2021/01/23 10:49:16;;;;;;;2.60;2.40;;;6.70;99.90;;;;;;6138417;23;20912;-86
2021/01/23 10:51:42;;;;;;;3.50;3.20;;;6.50;99.90;;;;;;6138317;23;20838;-86
2021/01/23 10:54:08;;;;;;;2.80;2.60;;;6.60;99.90;;;;;;6138295;23;20648;-87
2021/01/23 10:56:33;;;;;;;3.10;2.80;;;6.70;99.90;;;;;;6136032;23;20169;-86
2021/01/23 10:59:02;;;;;;;3.50;2.87;;;6.70;99.90;;;;;;6134896;23;20224;-85
2021/01/23 11:01:29;;;;;;;3.37;3.07;;;6.70;99.90;;;;;;6136710;23;20169;-89
2021/01/23 11:03:55;;;;;;;5.07;3.33;;;6.60;99.90;;;;;;6141936;23;20417;-88
2021/01/23 11:06:20;;;;;;;3.80;2.90;;;6.40;99.90;;;;;;6166496;23;20930;-84
2021/01/23 11:08:46;;;;;;;3.40;3.10;;;6.30;99.90;;;;;;6139681;23;20405;-85
2021/01/23 11:11:11;;;;;;;3.30;3.00;;;6.30;99.90;;;;;;6138945;23;20172;-86
2021/01/23 11:13:53;;;;;;;4.70;3.43;;;6.60;99.90;;;;;;6138392;23;20526;-89
2021/01/23 11:16:19;;;;;;;3.33;3.13;;;6.90;99.90;;;;;;6115239;23;20172;-86
2021/01/23 11:18:44;;;;;;;4.30;4.00;;;7.20;99.90;;;;;;6140450;23;20405;-86
2021/01/23 11:21:10;;;;;;;4.60;3.60;;;7.40;99.90;;;;;;6139426;23;20528;-85
2021/01/23 11:23:35;;;;;;;4.40;3.67;;;7.30;99.90;;;;;;6137241;23;20221;-86
2021/01/23 11:26:01;;;;;;;4.73;3.33;;;7.30;99.90;;;;;;6138792;23;20173;-86
2021/01/23 11:28:45;;;;;;;3.77;3.37;;;7.40;99.90;;;;;;6138757;23;20160;-88
2021/01/23 11:31:11;;;;;;;3.40;3.10;;;7.50;99.90;;;;;;6139978;23;20168;-83
2021/01/23 11:33:46;;;;;;;3.60;3.30;;;7.30;99.90;;;;;;6162901;23;20714;-84
2021/01/23 11:36:12;;;;;;;2.87;2.67;;;7.70;99.90;;;;;;6137743;23;20415;-85
2021/01/23 11:38:38;;;;;;;3.83;2.73;;;8.10;99.90;;;;;;6138937;23;20438;-85
2021/01/23 11:41:03;;;;;;;3.37;3.07;;;8.10;99.90;;;;;;6138936;23;20166;-86
2021/01/23 11:43:29;;;;;;;2.70;2.60;;;8.30;99.90;;;;;;6157421;23;20250;-87
2021/01/23 11:45:55;;;;;;;4.07;3.00;;;8.60;99.90;;;;;;6138605;23;20168;-85
2021/01/23 11:48:20;;;;;;;6.20;4.13;;;8.40;99.90;;;;;;6138280;23;20497;-85
2021/01/23 11:50:46;;;;;;;4.53;3.60;;;8.60;99.90;;;;;;6138201;23;20175;-84
2021/01/23 11:53:11;;;;;;;4.77;3.30;;;8.40;99.90;;;;;;6136217;23;20200;-85
2021/01/23 11:55:46;;;;;;;3.77;3.47;;;8.80;99.90;;;;;;6138391;23;20597;-85
2021/01/23 11:58:12;;;;;;;3.40;3.10;;;9.40;99.90;;;;;;6137712;23;20159;-83
2021/01/23 12:00:38;;;;;;;3.30;3.00;;;8.90;99.90;;;;;;6137276;23;20407;-86
2021/01/23 12:03:05;;;;;;;4.03;2.73;;;9.20;99.90;;;;;;6136662;23;20424;-85
2021/01/23 12:05:33;;;;;;;2.93;2.73;;;9.30;99.90;;;;;;6138745;23;20169;-86
2021/01/23 12:07:59;;;;;;;3.40;3.10;;;9.90;99.00;;;;;;6162813;23;20386;-87
2021/01/23 12:10:25;;;;;;;3.47;3.17;;;10.50;96.90;;;;;;6137721;23;20406;-85
2021/01/23 12:12:51;;;;;;;3.80;3.40;;;10.00;97.00;;;;;;6137078;23;20454;-85
2021/01/23 12:15:18;;;;;;;5.27;3.20;;;9.90;98.10;;;;;;6138740;23;20403;-87
2021/01/23 12:17:44;;;;;;;3.27;2.97;;;10.00;97.40;;;;;;6138388;23;20182;-86
2021/01/23 12:20:11;;;;;;;3.27;2.97;;;10.50;97.10;;;;;;6139304;23;20405;-86
2021/01/23 12:22:49;;;;;;;3.80;3.50;;;9.90;97.60;;;;;;6139097;23;20941;-88
2021/01/23 12:25:15;;;;;;;3.37;3.17;;;10.00;97.50;;;;;;6132230;23;20404;-87
2021/01/23 12:27:42;;;;;;;3.40;3.10;;;10.00;97.30;;;;;;6135677;23;20448;-86
2021/01/23 12:30:11;;;;;;;2.90;2.70;;;9.50;98.10;;;;;;6138566;23;20397;-87
2021/01/23 12:32:38;;;;;;;3.30;3.00;;;8.70;99.00;;;;;;6138032;23;20451;-87
2021/01/23 12:35:44;;;;;;;3.53;3.23;;;8.40;99.90;;;;;;6138167;23;20395;-85
2021/01/23 12:38:10;;;;;;;4.97;2.90;;;8.40;99.90;;;;;;6136760;23;20820;-84
2021/01/23 12:40:35;;;;;;;2.83;2.63;;;8.80;99.90;;;;;;6138552;23;20407;-86
2021/01/23 12:43:03;;;;;;;3.47;3.17;;;9.10;99.90;;;;;;6138855;23;20628;-92
2021/01/23 12:45:48;;;;;;;4.90;3.20;;;9.00;99.90;;;;;;6141694;23;20172;-93
2021/01/23 12:48:14;;;;;;;3.30;3.00;;;8.40;99.90;;;;;;6138431;23;20462;-90
2021/01/23 12:50:40;;;;;;;3.00;2.70;;;7.80;99.90;;;;;;6139770;23;20395;-88
2021/01/23 12:53:05;;;;;;;3.40;3.20;;;7.80;99.90;;;;;;6136194;23;20203;-89
2021/01/23 12:55:46;;;;;;;3.60;3.30;;;7.80;99.90;;;;;;6137331;23;20765;-87
2021/01/23 12:58:12;;;;;;;4.00;3.60;;;7.80;99.90;;;;;;6138047;23;20172;-89
2021/01/23 13:00:38;;;;;;;4.20;3.90;;;7.90;99.90;;;;;;6137300;23;20457;-91
2021/01/23 13:03:06;;;;;;;3.83;3.53;;;7.70;99.90;;;;;;6135400;23;20514;-88
2021/01/23 13:05:32;;;;;;;3.30;3.10;;;7.70;99.90;;;;;;6135259;23;20182;-89
2021/01/23 13:07:59;;;;;;;4.70;3.27;;;7.50;99.90;;;;;;6133716;23;20414;-91